sensor_id;sensor_type;location;lat;lon;timestamp;pressure;altitude;pressure_sealevel;temperature;humidity
60099;BME280;62818;49.394;8.686;2023-04-01T00:00:06;98945.00;;;10.15;98.76
60099;BME280;62818;49.394;8.686;2023-04-01T00:01:10;98934.81;;;10.12;98.49
60099;BME280;62818;49.394;8.686;2023-04-01T00:02:13;98929.50;;;10.12;98.95
60099;BME280;62818;49.394;8.686;2023-04-01T00:03:14;98934.41;;;10.15;98.79
60099;BME280;62818;49.394;8.686;2023-04-01T00:04:15;98932.75;;;10.14;98.34
60099;BME280;62818;49.394;8.686;2023-04-01T00:05:15;98920.94;;;10.17;98.14
60099;BME280;62818;49.394;8.686;2023-04-01T00:06:17;98928.66;;;10.18;98.28
60099;BME280;62818;49.394;8.686;2023-04-01T00:07:18;98927.06;;;10.17;98.22
60099;BME280;62818;49.394;8.686;2023-04-01T00:08:19;98934.81;;;10.12;97.76
60099;BME280;62818;49.394;8.686;2023-04-01T00:09:19;98929.28;;;10.14;98.06
60099;BME280;62818;49.394;8.686;2023-04-01T00:10:20;98936.81;;;10.10;98.07
60099;BME280;62818;49.394;8.686;2023-04-01T00:11:20;98921.56;;;10.12;97.72
60099;BME280;62818;49.394;8.686;2023-04-01T00:12:21;98919.75;;;10.13;98.21
60099;BME280;62818;49.394;8.686;2023-04-01T00:13:21;98922.16;;;10.14;97.99
60099;BME280;62818;49.394;8.686;2023-04-01T00:14:22;98924.22;;;10.12;98.03
60099;BME280;62818;49.394;8.686;2023-04-01T00:15:22;98915.88;;;10.15;97.71
60099;BME280;62818;49.394;8.686;2023-04-01T00:16:23;98930.13;;;10.14;97.67
60099;BME280;62818;49.394;8.686;2023-04-01T00:17:23;98928.47;;;10.13;97.01
60099;BME280;62818;49.394;8.686;2023-04-01T00:18:24;98918.50;;;10.15;97.20
60099;BME280;62818;49.394;8.686;2023-04-01T00:19:25;98923.19;;;10.13;97.03
60099;BME280;62818;49.394;8.686;2023-04-01T00:20:26;98919.94;;;10.11;96.74
60099;BME280;62818;49.394;8.686;2023-04-01T00:21:27;98908.09;;;10.14;96.75
60099;BME280;62818;49.394;8.686;2023-04-01T00:22:28;98911.34;;;10.16;97.32
60099;BME280;62818;49.394;8.686;2023-04-01T00:23:28;98911.97;;;10.11;97.14
60099;BME280;62818;49.394;8.686;2023-04-01T00:24:29;98903.63;;;10.14;97.27
60099;BME280;62818;49.394;8.686;2023-04-01T00:25:29;98904.03;;;10.11;97.17
60099;BME280;62818;49.394;8.686;2023-04-01T00:26:30;98906.28;;;10.14;97.35
60099;BME280;62818;49.394;8.686;2023-04-01T00:27:30;98912.81;;;10.12;97.00
60099;BME280;62818;49.394;8.686;2023-04-01T00:28:33;98914.22;;;10.08;96.70
60099;BME280;62818;49.394;8.686;2023-04-01T00:29:36;98917.69;;;10.08;97.30
60099;BME280;62818;49.394;8.686;2023-04-01T00:30:37;98906.28;;;10.08;97.69
60099;BME280;62818;49.394;8.686;2023-04-01T00:31:37;98908.31;;;10.12;97.00
60099;BME280;62818;49.394;8.686;2023-04-01T00:32:38;98912.81;;;10.12;97.11
60099;BME280;62818;49.394;8.686;2023-04-01T00:33:39;98911.97;;;10.11;97.30
60099;BME280;62818;49.394;8.686;2023-04-01T00:34:41;98905.44;;;10.07;97.69
60099;BME280;62818;49.394;8.686;2023-04-01T00:35:41;98907.09;;;10.08;97.01
60099;BME280;62818;49.394;8.686;2023-04-01T00:36:42;98914.00;;;10.09;97.37
60099;BME280;62818;49.394;8.686;2023-04-01T00:37:42;98918.91;;;10.06;97.46
60099;BME280;62818;49.394;8.686;2023-04-01T00:38:43;98929.50;;;10.06;97.70
60099;BME280;62818;49.394;8.686;2023-04-01T00:39:43;98910.34;;;10.10;97.41
60099;BME280;62818;49.394;8.686;2023-04-01T00:40:45;98916.50;;;10.11;97.67
60099;BME280;62818;49.394;8.686;2023-04-01T00:41:46;98915.22;;;10.07;97.43
60099;BME280;62818;49.394;8.686;2023-04-01T00:42:47;98910.75;;;10.14;97.69
60099;BME280;62818;49.394;8.686;2023-04-01T00:43:50;98918.69;;;10.07;98.24
60099;BME280;62818;49.394;8.686;2023-04-01T00:44:52;98926.25;;;10.04;97.64
60099;BME280;62818;49.394;8.686;2023-04-01T00:45:54;98929.28;;;10.07;97.71
60099;BME280;62818;49.394;8.686;2023-04-01T00:46:55;98916.47;;;10.04;97.42
60099;BME280;62818;49.394;8.686;2023-04-01T00:47:58;98925.44;;;10.03;98.16
60099;BME280;62818;49.394;8.686;2023-04-01T00:49:05;98918.53;;;10.02;98.37
60099;BME280;62818;49.394;8.686;2023-04-01T00:50:06;98918.53;;;10.02;97.98
60099;BME280;62818;49.394;8.686;2023-04-01T00:51:15;98918.09;;;10.05;98.40
60099;BME280;62818;49.394;8.686;2023-04-01T00:52:21;98926.03;;;9.99;98.31
60099;BME280;62818;49.394;8.686;2023-04-01T00:53:25;98918.53;;;10.02;97.82
60099;BME280;62818;49.394;8.686;2023-04-01T00:54:28;98911.19;;;10.04;97.84
60099;BME280;62818;49.394;8.686;2023-04-01T00:55:32;98920.13;;;10.03;97.45
60099;BME280;62818;49.394;8.686;2023-04-01T00:56:39;98929.28;;;10.07;97.79
60099;BME280;62818;49.394;8.686;2023-04-01T00:57:45;98919.72;;;10.06;96.97
60099;BME280;62818;49.394;8.686;2023-04-01T00:58:57;98924.19;;;10.06;96.62
60099;BME280;62818;49.394;8.686;2023-04-01T01:00:00;98919.72;;;10.06;97.20
60099;BME280;62818;49.394;8.686;2023-04-01T01:01:01;98914.84;;;10.03;97.30
60099;BME280;62818;49.394;8.686;2023-04-01T01:02:04;98918.91;;;10.06;97.10
60099;BME280;62818;49.394;8.686;2023-04-01T01:03:07;98917.69;;;10.08;96.40
60099;BME280;62818;49.394;8.686;2023-04-01T01:04:38;98916.88;;;10.01;97.22
60099;BME280;62818;49.394;8.686;2023-04-01T01:07:42;98916.03;;;10.07;96.55
60099;BME280;62818;49.394;8.686;2023-04-01T01:09:03;98906.28;;;10.08;96.49
60099;BME280;62818;49.394;8.686;2023-04-01T01:10:24;98913.63;;;9.99;97.13
60099;BME280;62818;49.394;8.686;2023-04-01T01:14:01;98907.50;;;10.05;96.13
60099;BME280;62818;49.394;8.686;2023-04-01T01:15:21;98906.50;;;10.06;96.07
60099;BME280;62818;49.394;8.686;2023-04-01T01:16:43;98906.88;;;10.10;95.89
60099;BME280;62818;49.394;8.686;2023-04-01T01:25:17;98902.19;;;10.05;95.71
60099;BME280;62818;49.394;8.686;2023-04-01T01:26:54;98902.63;;;10.09;95.66
60099;BME280;62818;49.394;8.686;2023-04-01T01:31:23;98883.69;;;10.12;94.99
60099;BME280;62818;49.394;8.686;2023-04-01T01:34:08;98892.03;;;10.09;95.16
60099;BME280;62818;49.394;8.686;2023-04-01T01:35:21;98888.16;;;10.11;94.83
60099;BME280;62818;49.394;8.686;2023-04-01T01:36:26;98894.47;;;10.10;95.14
60099;BME280;62818;49.394;8.686;2023-04-01T01:37:31;98887.53;;;10.09;95.00
60099;BME280;62818;49.394;8.686;2023-04-01T01:38:33;98889.16;;;10.10;95.27
60099;BME280;62818;49.394;8.686;2023-04-01T01:39:36;98890.38;;;10.08;94.97
60099;BME280;62818;49.394;8.686;2023-04-01T01:40:41;98883.06;;;10.03;95.49
60099;BME280;62818;49.394;8.686;2023-04-01T01:41:46;98883.25;;;10.08;95.65
60099;BME280;62818;49.394;8.686;2023-04-01T01:42:52;98882.84;;;10.11;95.74
60099;BME280;62818;49.394;8.686;2023-04-01T01:43:56;98879.44;;;10.11;94.95
60099;BME280;62818;49.394;8.686;2023-04-01T01:45:01;98883.03;;;10.10;94.94
60099;BME280;62818;49.394;8.686;2023-04-01T01:46:13;98880.22;;;10.11;95.33
60099;BME280;62818;49.394;8.686;2023-04-01T01:47:19;98886.72;;;10.09;95.14
60099;BME280;62818;49.394;8.686;2023-04-01T01:48:23;98874.91;;;10.11;95.18
60099;BME280;62818;49.394;8.686;2023-04-01T01:49:27;98877.38;;;10.13;95.53
60099;BME280;62818;49.394;8.686;2023-04-01T01:50:31;98872.69;;;10.08;95.48
60099;BME280;62818;49.394;8.686;2023-04-01T01:51:33;98875.72;;;10.05;95.06
60099;BME280;62818;49.394;8.686;2023-04-01T01:52:34;98876.56;;;10.06;95.66
60099;BME280;62818;49.394;8.686;2023-04-01T01:53:35;98879.81;;;10.08;95.43
60099;BME280;62818;49.394;8.686;2023-04-01T01:54:46;98887.53;;;10.16;94.91
60099;BME280;62818;49.394;8.686;2023-04-01T01:55:47;98889.16;;;10.10;95.08
60099;BME280;62818;49.394;8.686;2023-04-01T01:56:51;98875.94;;;10.10;95.12
60099;BME280;62818;49.394;8.686;2023-04-01T01:58:16;98878.97;;;10.07;94.11
60099;BME280;62818;49.394;8.686;2023-04-01T01:59:22;98882.84;;;10.11;94.82
60099;BME280;62818;49.394;8.686;2023-04-01T02:00:25;98874.91;;;10.11;94.01
60099;BME280;62818;49.394;8.686;2023-04-01T02:01:29;98882.06;;;10.17;93.88
60099;BME280;62818;49.394;8.686;2023-04-01T02:02:33;98880.63;;;10.15;94.22
60099;BME280;62818;49.394;8.686;2023-04-01T02:03:36;98886.75;;;10.15;94.17
60099;BME280;62818;49.394;8.686;2023-04-01T02:04:41;98881.00;;;10.18;93.91
60099;BME280;62818;49.394;8.686;2023-04-01T02:05:45;98876.91;;;10.22;93.07
60099;BME280;62818;49.394;8.686;2023-04-01T02:06:58;98878.97;;;10.20;93.43
60099;BME280;62818;49.394;8.686;2023-04-01T02:08:07;98880.16;;;10.24;93.50
60099;BME280;62818;49.394;8.686;2023-04-01T02:09:13;98878.97;;;10.20;92.71
60099;BME280;62818;49.394;8.686;2023-04-01T02:10:14;98875.72;;;10.18;92.60
60099;BME280;62818;49.394;8.686;2023-04-01T02:11:17;98882.22;;;10.22;92.81
60099;BME280;62818;49.394;8.686;2023-04-01T02:12:24;98877.34;;;10.19;92.32
60099;BME280;62818;49.394;8.686;2023-04-01T02:13:27;98882.22;;;10.22;92.06
60099;BME280;62818;49.394;8.686;2023-04-01T02:14:54;98864.94;;;10.20;91.87
60099;BME280;62818;49.394;8.686;2023-04-01T02:16:02;98879.16;;;10.25;92.18
60099;BME280;62818;49.394;8.686;2023-04-01T02:17:14;98872.66;;;10.21;92.20
60099;BME280;62818;49.394;8.686;2023-04-01T02:18:18;98868.78;;;10.24;91.54
60099;BME280;62818;49.394;8.686;2023-04-01T02:19:22;98877.72;;;10.23;91.55
60099;BME280;62818;49.394;8.686;2023-04-01T02:20:33;98876.31;;;10.20;91.87
60099;BME280;62818;49.394;8.686;2023-04-01T02:21:37;98882.44;;;10.21;92.16
60099;BME280;62818;49.394;8.686;2023-04-01T02:22:47;98883.63;;;10.25;90.46
60099;BME280;62818;49.394;8.686;2023-04-01T02:23:52;98876.72;;;10.24;90.67
60099;BME280;62818;49.394;8.686;2023-04-01T02:25:00;98881.19;;;10.23;91.14
60099;BME280;62818;49.394;8.686;2023-04-01T02:26:07;98874.06;;;10.24;90.58
60099;BME280;62818;49.394;8.686;2023-04-01T02:27:10;98883.03;;;10.23;90.82
60099;BME280;62818;49.394;8.686;2023-04-01T02:28:12;98884.66;;;10.24;90.71
60099;BME280;62818;49.394;8.686;2023-04-01T02:29:18;98889.75;;;10.25;90.85
60099;BME280;62818;49.394;8.686;2023-04-01T02:30:21;98883.84;;;10.23;90.75
60099;BME280;62818;49.394;8.686;2023-04-01T02:31:23;98890.56;;;10.26;90.85
60099;BME280;62818;49.394;8.686;2023-04-01T02:32:25;98889.53;;;10.27;90.97
60099;BME280;62818;49.394;8.686;2023-04-01T02:33:28;98885.06;;;10.27;90.37
60099;BME280;62818;49.394;8.686;2023-04-01T02:34:30;98886.88;;;10.27;90.80
60099;BME280;62818;49.394;8.686;2023-04-01T02:35:35;98877.09;;;10.27;90.38
60099;BME280;62818;49.394;8.686;2023-04-01T02:36:37;98888.31;;;10.29;90.78
60099;BME280;62818;49.394;8.686;2023-04-01T02:37:39;98879.75;;;10.27;90.97
60099;BME280;62818;49.394;8.686;2023-04-01T02:38:45;98893.59;;;10.29;90.68
60099;BME280;62818;49.394;8.686;2023-04-01T02:39:46;98878.75;;;10.28;90.26
60099;BME280;62818;49.394;8.686;2023-04-01T02:40:49;98895.25;;;10.30;90.44
60099;BME280;62818;49.394;8.686;2023-04-01T02:41:56;98886.47;;;10.30;90.27
60099;BME280;62818;49.394;8.686;2023-04-01T02:42:56;98886.09;;;10.26;90.33
60099;BME280;62818;49.394;8.686;2023-04-01T02:43:57;98878.75;;;10.28;90.56
60099;BME280;62818;49.394;8.686;2023-04-01T02:44:59;98881.59;;;10.27;90.51
60099;BME280;62818;49.394;8.686;2023-04-01T02:46:00;98878.16;;;10.26;90.99
60099;BME280;62818;49.394;8.686;2023-04-01T02:47:02;98887.28;;;10.30;90.28
60099;BME280;62818;49.394;8.686;2023-04-01T02:48:02;98869.16;;;10.27;89.83
60099;BME280;62818;49.394;8.686;2023-04-01T02:49:04;98882.19;;;10.29;90.36
60099;BME280;62818;49.394;8.686;2023-04-01T02:50:06;98872.03;;;10.26;90.69
60099;BME280;62818;49.394;8.686;2023-04-01T02:51:07;98871.81;;;10.27;90.18
60099;BME280;62818;49.394;8.686;2023-04-01T02:52:08;98883.44;;;10.26;90.33
60099;BME280;62818;49.394;8.686;2023-04-01T02:53:08;98885.84;;;10.34;90.39
60099;BME280;62818;49.394;8.686;2023-04-01T02:54:09;98875.66;;;10.31;90.45
60099;BME280;62818;49.394;8.686;2023-04-01T02:55:10;98880.56;;;10.28;90.35
60099;BME280;62818;49.394;8.686;2023-04-01T02:56:10;98880.78;;;10.26;90.54
60099;BME280;62818;49.394;8.686;2023-04-01T02:57:10;98872.41;;;10.29;90.33
60099;BME280;62818;49.394;8.686;2023-04-01T02:58:11;98881.19;;;10.30;90.49
60099;BME280;62818;49.394;8.686;2023-04-01T02:59:12;98876.69;;;10.30;90.14
60099;BME280;62818;49.394;8.686;2023-04-01T03:00:13;98876.25;;;10.33;90.65
60099;BME280;62818;49.394;8.686;2023-04-01T03:01:14;98879.75;;;10.27;90.70
60099;BME280;62818;49.394;8.686;2023-04-01T03:02:15;98889.34;;;10.28;90.52
60099;BME280;62818;49.394;8.686;2023-04-01T03:03:16;98898.06;;;10.29;90.07
60099;BME280;62818;49.394;8.686;2023-04-01T03:04:17;98886.09;;;10.26;90.15
60099;BME280;62818;49.394;8.686;2023-04-01T03:05:17;98878.75;;;10.28;90.19
60099;BME280;62818;49.394;8.686;2023-04-01T03:06:18;98897.28;;;10.28;89.60
60099;BME280;62818;49.394;8.686;2023-04-01T03:07:19;98888.31;;;10.29;89.93
60099;BME280;62818;49.394;8.686;2023-04-01T03:08:19;98894.03;;;10.26;89.96
60099;BME280;62818;49.394;8.686;2023-04-01T03:09:20;98883.44;;;10.26;89.92
60099;BME280;62818;49.394;8.686;2023-04-01T03:10:20;98876.09;;;10.28;90.38
60099;BME280;62818;49.394;8.686;2023-04-01T03:11:21;98887.91;;;10.26;90.65
60099;BME280;62818;49.394;8.686;2023-04-01T03:12:21;98881.81;;;10.25;90.53
60099;BME280;62818;49.394;8.686;2023-04-01T03:13:22;98870.41;;;10.25;90.73
60099;BME280;62818;49.394;8.686;2023-04-01T03:14:22;98877.31;;;10.26;90.57
60099;BME280;62818;49.394;8.686;2023-04-01T03:15:23;98886.69;;;10.28;90.61
60099;BME280;62818;49.394;8.686;2023-04-01T03:16:23;98882.41;;;10.27;90.39
60099;BME280;62818;49.394;8.686;2023-04-01T03:17:24;98877.72;;;10.29;90.45
60099;BME280;62818;49.394;8.686;2023-04-01T03:18:24;98878.16;;;10.26;90.48
60099;BME280;62818;49.394;8.686;2023-04-01T03:19:25;98882.19;;;10.29;90.53
60099;BME280;62818;49.394;8.686;2023-04-01T03:20:25;98890.34;;;10.27;90.58
60099;BME280;62818;49.394;8.686;2023-04-01T03:21:26;98880.78;;;10.26;90.11
60099;BME280;62818;49.394;8.686;2023-04-01T03:22:26;98880.78;;;10.26;90.19
60099;BME280;62818;49.394;8.686;2023-04-01T03:23:27;98877.91;;;10.34;89.79
60099;BME280;62818;49.394;8.686;2023-04-01T03:24:27;98885.47;;;10.31;90.18
60099;BME280;62818;49.394;8.686;2023-04-01T03:25:28;98883.19;;;10.34;89.81
60099;BME280;62818;49.394;8.686;2023-04-01T03:26:30;98875.47;;;10.33;90.00
60099;BME280;62818;49.394;8.686;2023-04-01T03:27:31;98882.97;;;10.36;89.83
60099;BME280;62818;49.394;8.686;2023-04-01T03:28:31;98885.84;;;10.34;90.36
60099;BME280;62818;49.394;8.686;2023-04-01T03:29:32;98878.50;;;10.36;90.10
60099;BME280;62818;49.394;8.686;2023-04-01T03:30:32;98887.47;;;10.35;89.80
60099;BME280;62818;49.394;8.686;2023-04-01T03:31:33;98873.19;;;10.36;89.91
60099;BME280;62818;49.394;8.686;2023-04-01T03:32:34;98883.00;;;10.29;89.51
60099;BME280;62818;49.394;8.686;2023-04-01T03:33:35;98874.06;;;10.30;89.75
60099;BME280;62818;49.394;8.686;2023-04-01T03:34:35;98876.84;;;10.35;89.92
60099;BME280;62818;49.394;8.686;2023-04-01T03:35:36;98879.94;;;10.32;89.35
60099;BME280;62818;49.394;8.686;2023-04-01T03:36:37;98889.94;;;10.30;89.84
60099;BME280;62818;49.394;8.686;2023-04-01T03:37:37;98876.47;;;10.32;89.71
60099;BME280;62818;49.394;8.686;2023-04-01T03:38:40;98883.41;;;10.33;89.33
60099;BME280;62818;49.394;8.686;2023-04-01T03:39:41;98874.06;;;10.30;89.47
60099;BME280;62818;49.394;8.686;2023-04-01T03:40:42;98880.56;;;10.34;89.75
60099;BME280;62818;49.394;8.686;2023-04-01T03:41:45;98864.28;;;10.31;89.93
60099;BME280;62818;49.394;8.686;2023-04-01T03:42:46;98870.81;;;10.28;90.08
60099;BME280;62818;49.394;8.686;2023-04-01T03:43:46;98873.84;;;10.25;90.75
60099;BME280;62818;49.394;8.686;2023-04-01T03:44:47;98874.06;;;10.24;91.37
60099;BME280;62818;49.394;8.686;2023-04-01T03:45:49;98871.63;;;10.22;91.43
60099;BME280;62818;49.394;8.686;2023-04-01T03:46:50;98874.47;;;10.21;92.07
60099;BME280;62818;49.394;8.686;2023-04-01T03:47:51;98875.53;;;10.13;93.78
60099;BME280;62818;49.394;8.686;2023-04-01T03:48:51;98869.22;;;10.08;94.50
60099;BME280;62818;49.394;8.686;2023-04-01T03:49:52;98875.31;;;10.08;95.05
60099;BME280;62818;49.394;8.686;2023-04-01T03:50:52;98880.00;;;10.06;95.34
60099;BME280;62818;49.394;8.686;2023-04-01T03:51:53;98883.09;;;9.90;96.50
60099;BME280;62818;49.394;8.686;2023-04-01T03:52:54;98875.38;;;9.89;97.14
60099;BME280;62818;49.394;8.686;2023-04-01T03:53:54;98884.31;;;9.94;97.22
60099;BME280;62818;49.394;8.686;2023-04-01T03:54:55;98873.31;;;9.97;97.99
60099;BME280;62818;49.394;8.686;2023-04-01T03:55:55;98882.31;;;9.83;97.73
60099;BME280;62818;49.394;8.686;2023-04-01T03:56:56;98881.06;;;9.86;98.40
60099;BME280;62818;49.394;8.686;2023-04-01T03:57:57;98878.22;;;9.87;98.17
60099;BME280;62818;49.394;8.686;2023-04-01T03:58:58;98879.25;;;9.86;98.61
60099;BME280;62818;49.394;8.686;2023-04-01T04:00:01;98881.31;;;9.78;98.13
60099;BME280;62818;49.394;8.686;2023-04-01T04:01:02;98890.06;;;9.85;98.70
60099;BME280;62818;49.394;8.686;2023-04-01T04:02:02;98882.72;;;9.80;98.63
60099;BME280;62818;49.394;8.686;2023-04-01T04:03:03;98885.16;;;9.82;98.62
60099;BME280;62818;49.394;8.686;2023-04-01T04:04:03;98883.94;;;9.84;98.18
60099;BME280;62818;49.394;8.686;2023-04-01T04:05:04;98884.13;;;9.76;98.85
60099;BME280;62818;49.394;8.686;2023-04-01T04:06:11;98881.13;;;9.66;99.62
60099;BME280;62818;49.394;8.686;2023-04-01T04:07:12;98874.38;;;9.77;99.19
60099;BME280;62818;49.394;8.686;2023-04-01T04:08:13;98884.13;;;9.76;98.78
60099;BME280;62818;49.394;8.686;2023-04-01T04:09:13;98881.94;;;9.73;98.38
60099;BME280;62818;49.394;8.686;2023-04-01T04:10:14;98887.22;;;9.73;98.97
60099;BME280;62818;49.394;8.686;2023-04-01T04:11:14;98855.88;;;9.70;98.77
60099;BME280;62818;49.394;8.686;2023-04-01T04:12:15;98880.28;;;9.72;98.78
60099;BME280;62818;49.394;8.686;2023-04-01T04:13:16;98886.59;;;9.78;98.66
60099;BME280;62818;49.394;8.686;2023-04-01T04:14:16;98879.88;;;9.75;97.91
60099;BME280;62818;49.394;8.686;2023-04-01T04:15:17;98886.38;;;9.79;98.11
60099;BME280;62818;49.394;8.686;2023-04-01T04:16:18;98888.03;;;9.80;97.93
60099;BME280;62818;49.394;8.686;2023-04-01T04:17:18;98878.25;;;9.74;97.55
60099;BME280;62818;49.394;8.686;2023-04-01T04:18:19;98883.75;;;9.66;98.50
60099;BME280;62818;49.394;8.686;2023-04-01T04:19:19;98888.06;;;9.67;98.58
60099;BME280;62818;49.394;8.686;2023-04-01T04:20:20;98866.06;;;9.66;98.72
60099;BME280;62818;49.394;8.686;2023-04-01T04:21:20;98875.44;;;9.69;99.02
60099;BME280;62818;49.394;8.686;2023-04-01T04:22:21;98875.44;;;9.69;98.56
60099;BME280;62818;49.394;8.686;2023-04-01T04:23:21;98879.06;;;9.68;98.63
60099;BME280;62818;49.394;8.686;2023-04-01T04:24:22;98876.66;;;9.66;99.59
60099;BME280;62818;49.394;8.686;2023-04-01T04:25:22;98878.47;;;9.66;99.27
60099;BME280;62818;49.394;8.686;2023-04-01T04:26:23;98891.69;;;9.66;99.33
60099;BME280;62818;49.394;8.686;2023-04-01T04:27:23;98875.63;;;9.61;99.28
60099;BME280;62818;49.394;8.686;2023-04-01T04:28:25;98874.19;;;9.52;99.74
60099;BME280;62818;49.394;8.686;2023-04-01T04:29:26;98878.47;;;9.59;100.00
60099;BME280;62818;49.394;8.686;2023-04-01T04:30:27;98883.38;;;9.69;100.00
60099;BME280;62818;49.394;8.686;2023-04-01T04:31:27;98875.81;;;9.66;100.00
60099;BME280;62818;49.394;8.686;2023-04-01T04:32:28;98876.44;;;9.61;100.00
60099;BME280;62818;49.394;8.686;2023-04-01T04:33:30;98877.03;;;9.63;100.00
60099;BME280;62818;49.394;8.686;2023-04-01T04:34:31;98882.75;;;9.54;100.00
60099;BME280;62818;49.394;8.686;2023-04-01T04:35:32;98879.31;;;9.60;100.00
60099;BME280;62818;49.394;8.686;2023-04-01T04:36:33;98880.75;;;9.56;100.00
60099;BME280;62818;49.394;8.686;2023-04-01T04:37:33;98875.44;;;9.56;100.00
60099;BME280;62818;49.394;8.686;2023-04-01T04:38:34;98874.41;;;9.57;100.00
60099;BME280;62818;49.394;8.686;2023-04-01T04:39:34;98879.09;;;9.55;100.00
60099;BME280;62818;49.394;8.686;2023-04-01T04:40:39;98880.75;;;9.56;100.00
60099;BME280;62818;49.394;8.686;2023-04-01T04:41:44;98876.44;;;9.55;100.00
60099;BME280;62818;49.394;8.686;2023-04-01T04:42:45;98877.47;;;9.47;100.00
60099;BME280;62818;49.394;8.686;2023-04-01T04:43:53;98879.31;;;9.47;100.00
60099;BME280;62818;49.394;8.686;2023-04-01T04:44:56;98875.44;;;9.43;100.00
60099;BME280;62818;49.394;8.686;2023-04-01T04:45:56;98879.72;;;9.44;100.00
60099;BME280;62818;49.394;8.686;2023-04-01T04:46:57;98872.19;;;9.41;100.00
60099;BME280;62818;49.394;8.686;2023-04-01T04:47:57;98884.41;;;9.42;100.00
60099;BME280;62818;49.394;8.686;2023-04-01T04:48:58;98873.81;;;9.35;100.00
60099;BME280;62818;49.394;8.686;2023-04-01T04:49:58;98875.44;;;9.30;100.00
60099;BME280;62818;49.394;8.686;2023-04-01T04:50:59;98875.03;;;9.20;100.00
60099;BME280;62818;49.394;8.686;2023-04-01T04:52:00;98869.16;;;9.31;100.00
60099;BME280;62818;49.394;8.686;2023-04-01T04:53:02;98872.41;;;9.26;100.00
60099;BME280;62818;49.394;8.686;2023-04-01T04:54:04;98873.81;;;9.22;100.00
60099;BME280;62818;49.394;8.686;2023-04-01T04:55:06;98869.16;;;9.24;100.00
60099;BME280;62818;49.394;8.686;2023-04-01T04:56:07;98866.72;;;9.23;100.00
60099;BME280;62818;49.394;8.686;2023-04-01T04:57:07;98870.75;;;9.25;100.00
60099;BME280;62818;49.394;8.686;2023-04-01T04:58:08;98868.16;;;9.32;100.00
60099;BME280;62818;49.394;8.686;2023-04-01T04:59:09;98864.47;;;9.33;100.00
60099;BME280;62818;49.394;8.686;2023-04-01T05:00:09;98862.66;;;9.27;100.00
60099;BME280;62818;49.394;8.686;2023-04-01T05:01:14;98864.88;;;9.30;100.00
60099;BME280;62818;49.394;8.686;2023-04-01T05:02:16;98867.72;;;9.35;100.00
60099;BME280;62818;49.394;8.686;2023-04-01T05:03:16;98863.84;;;9.31;100.00
60099;BME280;62818;49.394;8.686;2023-04-01T05:04:17;98865.28;;;9.27;100.00
60099;BME280;62818;49.394;8.686;2023-04-01T05:05:17;98859.38;;;9.31;100.00
60099;BME280;62818;49.394;8.686;2023-04-01T05:06:20;98862.44;;;9.35;100.00
60099;BME280;62818;49.394;8.686;2023-04-01T05:07:20;98859.56;;;9.36;100.00
60099;BME280;62818;49.394;8.686;2023-04-01T05:08:21;98852.66;;;9.42;100.00
60099;BME280;62818;49.394;8.686;2023-04-01T05:09:21;98860.38;;;9.37;100.00
60099;BME280;62818;49.394;8.686;2023-04-01T05:10:22;98860.81;;;9.27;100.00
60099;BME280;62818;49.394;8.686;2023-04-01T05:11:23;98858.56;;;9.31;100.00
60099;BME280;62818;49.394;8.686;2023-04-01T05:12:23;98864.84;;;9.36;100.00
60099;BME280;62818;49.394;8.686;2023-04-01T05:13:24;98859.16;;;9.39;100.00
60099;BME280;62818;49.394;8.686;2023-04-01T05:14:25;98872.19;;;9.41;100.00
60099;BME280;62818;49.394;8.686;2023-04-01T05:15:25;98858.78;;;9.36;100.00
60099;BME280;62818;49.394;8.686;2023-04-01T05:16:26;98868.53;;;9.42;100.00
60099;BME280;62818;49.394;8.686;2023-04-01T05:17:26;98862.03;;;9.44;100.00
60099;BME280;62818;49.394;8.686;2023-04-01T05:18:27;98862.22;;;9.43;100.00
60099;BME280;62818;49.394;8.686;2023-04-01T05:19:27;98858.75;;;9.49;100.00
60099;BME280;62818;49.394;8.686;2023-04-01T05:20:28;98865.28;;;9.46;100.00
60099;BME280;62818;49.394;8.686;2023-04-01T05:21:29;98864.44;;;9.46;100.00
60099;BME280;62818;49.394;8.686;2023-04-01T05:22:29;98862.03;;;9.44;100.00
60099;BME280;62818;49.394;8.686;2023-04-01T05:23:30;98860.38;;;9.50;100.00
60099;BME280;62818;49.394;8.686;2023-04-01T05:24:32;98860.38;;;9.50;100.00
60099;BME280;62818;49.394;8.686;2023-04-01T05:25:33;98867.31;;;9.44;100.00
60099;BME280;62818;49.394;8.686;2023-04-01T05:26:33;98865.66;;;9.50;100.00
60099;BME280;62818;49.394;8.686;2023-04-01T05:27:34;98869.94;;;9.51;100.00
60099;BME280;62818;49.394;8.686;2023-04-01T05:28:35;98865.25;;;9.53;100.00
60099;BME280;62818;49.394;8.686;2023-04-01T05:29:36;98863.22;;;9.55;100.00
60099;BME280;62818;49.394;8.686;2023-04-01T05:30:36;98873.19;;;9.53;100.00
60099;BME280;62818;49.394;8.686;2023-04-01T05:31:36;98870.16;;;9.56;99.80
60099;BME280;62818;49.394;8.686;2023-04-01T05:32:37;98867.28;;;9.57;100.00
60099;BME280;62818;49.394;8.686;2023-04-01T05:33:37;98872.97;;;9.61;100.00
60099;BME280;62818;49.394;8.686;2023-04-01T05:34:38;98867.69;;;9.61;99.85
60099;BME280;62818;49.394;8.686;2023-04-01T05:35:39;98869.94;;;9.64;99.83
60099;BME280;62818;49.394;8.686;2023-04-01T05:36:41;98876.06;;;9.58;99.59
60099;BME280;62818;49.394;8.686;2023-04-01T05:37:43;98866.69;;;9.62;99.66
60099;BME280;62818;49.394;8.686;2023-04-01T05:38:43;98865.66;;;9.63;99.00
60099;BME280;62818;49.394;8.686;2023-04-01T05:39:45;98870.94;;;9.63;98.41
60099;BME280;62818;49.394;8.686;2023-04-01T05:40:46;98874.41;;;9.63;98.34
60099;BME280;62818;49.394;8.686;2023-04-01T05:41:46;98860.34;;;9.63;98.95
60099;BME280;62818;49.394;8.686;2023-04-01T05:42:47;98860.97;;;9.65;98.67
60099;BME280;62818;49.394;8.686;2023-04-01T05:43:47;98857.91;;;9.68;98.63
60099;BME280;62818;49.394;8.686;2023-04-01T05:44:48;98866.06;;;9.66;98.62
60099;BME280;62818;49.394;8.686;2023-04-01T05:45:48;98866.88;;;9.67;99.02
60099;BME280;62818;49.394;8.686;2023-04-01T05:46:49;98851.00;;;9.67;98.42
60099;BME280;62818;49.394;8.686;2023-04-01T05:47:49;98863.19;;;9.68;98.50
60099;BME280;62818;49.394;8.686;2023-04-01T05:48:50;98860.56;;;9.68;98.54